Voltaire, ND

7:11 AM CDT on July 04, 2015 (GMT -0500)
APRSWXNET | | Change Station
CLOSE
Current Station
Personal Weather Station
Location: Ruso, ND
Elevation: 2200 ft
Nearby Weather Stations

Elev 2200 ft 47.84 °N, 100.93 °W | Updated 23 minutes ago

Fog
Fog
64 °F
Feels Like 64 °F
N
4
Wind Variable Wind from South
Gusts 0.0 mph

Today
High -- | Low -- °F
--% Chance of Precip.
Yesterday
High -- | Low -- °F
Precip. -- in
5:49 AM 9:44 PM
Waning Gibbous, 92% visible
Pressure 29.77 in
Visibility 2.5 miles
Clouds Few 8000 ft
Dew Point 62 °F
Humidity 92%
Rainfall in
Snow Depth Not available.
UV 0 out of 12
Pollen 5.80 out of 12
Air Quality Not available.
Flu Activity Not available.
METAR KMOT 041154Z AUTO 19004KT 2 1/2SM HZ FEW080 20/17 A2979 RMK AO2 SLP079 T02000167 10200 20167 55008

More Conditions Fewer Conditions

Pressure 29.77 in
Visibility 2.5 miles
Clouds Few 8000 ft
Dew Point 62 °F
Humidity 92%
Rainfall in
Snow Depth Not available.
UV 0 out of 12
Pollen 5.80 out of 12
Air Quality Not available.
Flu Activity Not available.
METAR KMOT 041154Z AUTO 19004KT 2 1/2SM HZ FEW080 20/17 A2979 RMK AO2 SLP079 T02000167 10200 20167 55008

More Conditions Fewer Conditions

10-Day Weather Forecast

×

Almanac

Astronomy

Jul. 04, 2015 Rise Set
Actual Time
Civil Twilight
Nautical Twilight
Astronomical Twilight
Moon
Length of Visible Light
Length of Day
Tomorrow will be .
, % of the Moon is Illuminated

Today's Extremes

State Highs State Lows

Community

WunderPhotos

Upload Photos

1,834,946 photos uploaded!

WunderBlogs® & News

Nearby

Air Quality

  Air Quality AQ Index Pollutant
Not available.

Snow Depth

Station Depth Elevation

Earthquake Activity

City Distance Mag. Time & Date
Minimum magnitude displayed is 2.5.

Coastal Water Temperatures

Place Temperature

Stations

Nearby Weather Stations

Station Location Temp. Windchill Dew Point Humidity Wind Precip. Elev Updated Type